sensor_id;sensor_type;location;lat;lon;timestamp;temperature;humidity
14735;DHT22;7458;49.002;8.472;2022-09-14T00:01:18;20.90;99.90
14735;DHT22;7458;49.002;8.472;2022-09-14T00:03:46;20.90;99.90
14735;DHT22;7458;49.002;8.472;2022-09-14T00:06:15;20.80;99.90
14735;DHT22;7458;49.002;8.472;2022-09-14T00:08:42;20.80;99.90
14735;DHT22;7458;49.002;8.472;2022-09-14T00:11:12;20.90;99.90
14735;DHT22;7458;49.002;8.472;2022-09-14T00:13:42;20.90;99.90
14735;DHT22;7458;49.002;8.472;2022-09-14T00:16:17;20.90;99.90
14735;DHT22;7458;49.002;8.472;2022-09-14T00:18:50;20.80;99.90
14735;DHT22;7458;49.002;8.472;2022-09-14T00:21:17;20.80;99.90
14735;DHT22;7458;49.002;8.472;2022-09-14T00:23:43;20.80;99.90
14735;DHT22;7458;49.002;8.472;2022-09-14T00:26:14;20.80;99.90
14735;DHT22;7458;49.002;8.472;2022-09-14T00:28:45;20.80;99.90
14735;DHT22;7458;49.002;8.472;2022-09-14T00:31:15;20.80;99.90
14735;DHT22;7458;49.002;8.472;2022-09-14T00:33:43;20.90;99.90
14735;DHT22;7458;49.002;8.472;2022-09-14T00:36:14;20.70;99.90
14735;DHT22;7458;49.002;8.472;2022-09-14T00:38:50;20.70;99.90
14735;DHT22;7458;49.002;8.472;2022-09-14T00:41:23;20.70;99.90
14735;DHT22;7458;49.002;8.472;2022-09-14T00:46:24;20.60;99.90
14735;DHT22;7458;49.002;8.472;2022-09-14T00:48:53;20.60;99.90
14735;DHT22;7458;49.002;8.472;2022-09-14T00:51:22;20.60;99.90
14735;DHT22;7458;49.002;8.472;2022-09-14T00:53:49;20.60;99.90
14735;DHT22;7458;49.002;8.472;2022-09-14T00:56:15;20.50;99.90
14735;DHT22;7458;49.002;8.472;2022-09-14T00:58:44;20.50;99.90
14735;DHT22;7458;49.002;8.472;2022-09-14T01:01:12;20.50;99.90
14735;DHT22;7458;49.002;8.472;2022-09-14T01:03:38;20.50;99.90
14735;DHT22;7458;49.002;8.472;2022-09-14T01:06:25;20.50;99.90
14735;DHT22;7458;49.002;8.472;2022-09-14T01:15:05;20.50;99.90
14735;DHT22;7458;49.002;8.472;2022-09-14T01:23:54;20.60;99.90
14735;DHT22;7458;49.002;8.472;2022-09-14T01:32:34;20.40;99.90
14735;DHT22;7458;49.002;8.472;2022-09-14T01:38:12;19.80;99.90
14735;DHT22;7458;49.002;8.472;2022-09-14T01:40:49;19.50;99.90
14735;DHT22;7458;49.002;8.472;2022-09-14T01:43:29;19.50;99.90
14735;DHT22;7458;49.002;8.472;2022-09-14T01:46:07;19.50;99.90
14735;DHT22;7458;49.002;8.472;2022-09-14T01:51:24;19.30;99.90
14735;DHT22;7458;49.002;8.472;2022-09-14T01:54:02;19.30;99.90
14735;DHT22;7458;49.002;8.472;2022-09-14T01:56:39;19.20;99.90
14735;DHT22;7458;49.002;8.472;2022-09-14T01:59:24;19.20;99.90
14735;DHT22;7458;49.002;8.472;2022-09-14T02:04:53;19.10;99.90
14735;DHT22;7458;49.002;8.472;2022-09-14T02:07:25;19.10;99.90
14735;DHT22;7458;49.002;8.472;2022-09-14T02:09:53;19.10;99.90
14735;DHT22;7458;49.002;8.472;2022-09-14T02:12:21;19.00;99.90
14735;DHT22;7458;49.002;8.472;2022-09-14T02:14:49;18.90;99.90
14735;DHT22;7458;49.002;8.472;2022-09-14T02:17:18;19.00;99.90
14735;DHT22;7458;49.002;8.472;2022-09-14T02:19:58;18.90;99.90
14735;DHT22;7458;49.002;8.472;2022-09-14T02:22:27;18.90;99.90
14735;DHT22;7458;49.002;8.472;2022-09-14T02:24:54;19.00;99.90
14735;DHT22;7458;49.002;8.472;2022-09-14T02:27:21;19.00;99.90
14735;DHT22;7458;49.002;8.472;2022-09-14T02:29:48;18.90;99.90
14735;DHT22;7458;49.002;8.472;2022-09-14T02:35:37;18.90;99.90
14735;DHT22;7458;49.002;8.472;2022-09-14T02:41:50;18.90;99.90
14735;DHT22;7458;49.002;8.472;2022-09-14T02:45:10;19.00;99.90
14735;DHT22;7458;49.002;8.472;2022-09-14T02:48:02;19.00;99.90
14735;DHT22;7458;49.002;8.472;2022-09-14T02:50:53;19.00;99.90
14735;DHT22;7458;49.002;8.472;2022-09-14T02:53:36;18.90;99.90
14735;DHT22;7458;49.002;8.472;2022-09-14T02:56:10;18.90;99.90
14735;DHT22;7458;49.002;8.472;2022-09-14T02:58:40;18.80;99.90
14735;DHT22;7458;49.002;8.472;2022-09-14T03:01:09;18.80;99.90
14735;DHT22;7458;49.002;8.472;2022-09-14T03:03:37;18.70;99.90
14735;DHT22;7458;49.002;8.472;2022-09-14T03:06:03;18.80;99.90
14735;DHT22;7458;49.002;8.472;2022-09-14T03:08:30;18.80;99.90
14735;DHT22;7458;49.002;8.472;2022-09-14T03:10:56;18.70;99.90
14735;DHT22;7458;49.002;8.472;2022-09-14T03:13:21;18.80;99.90
14735;DHT22;7458;49.002;8.472;2022-09-14T03:15:48;18.80;99.90
14735;DHT22;7458;49.002;8.472;2022-09-14T03:18:14;18.80;99.90
14735;DHT22;7458;49.002;8.472;2022-09-14T03:20:40;18.80;99.90
14735;DHT22;7458;49.002;8.472;2022-09-14T03:23:06;18.80;99.90
14735;DHT22;7458;49.002;8.472;2022-09-14T03:25:38;18.80;99.90
14735;DHT22;7458;49.002;8.472;2022-09-14T03:28:07;18.80;99.90
14735;DHT22;7458;49.002;8.472;2022-09-14T03:30:33;18.70;99.90
14735;DHT22;7458;49.002;8.472;2022-09-14T03:32:59;18.60;99.90
14735;DHT22;7458;49.002;8.472;2022-09-14T03:35:28;18.60;99.90
14735;DHT22;7458;49.002;8.472;2022-09-14T03:37:56;18.70;99.90
14735;DHT22;7458;49.002;8.472;2022-09-14T03:40:23;18.70;99.90
14735;DHT22;7458;49.002;8.472;2022-09-14T03:42:50;18.60;99.90
14735;DHT22;7458;49.002;8.472;2022-09-14T03:45:17;18.60;99.90
14735;DHT22;7458;49.002;8.472;2022-09-14T03:47:44;18.60;99.90
14735;DHT22;7458;49.002;8.472;2022-09-14T03:50:12;18.60;99.90
14735;DHT22;7458;49.002;8.472;2022-09-14T03:52:39;18.60;99.90
14735;DHT22;7458;49.002;8.472;2022-09-14T03:55:06;18.50;99.90
14735;DHT22;7458;49.002;8.472;2022-09-14T03:57:34;18.50;99.90
14735;DHT22;7458;49.002;8.472;2022-09-14T04:00:00;18.50;99.90
14735;DHT22;7458;49.002;8.472;2022-09-14T04:02:27;18.50;99.90
14735;DHT22;7458;49.002;8.472;2022-09-14T04:04:54;18.50;99.90
14735;DHT22;7458;49.002;8.472;2022-09-14T04:07:20;18.40;99.90
14735;DHT22;7458;49.002;8.472;2022-09-14T04:09:46;18.40;99.90
14735;DHT22;7458;49.002;8.472;2022-09-14T04:12:11;18.30;99.90
14735;DHT22;7458;49.002;8.472;2022-09-14T04:14:37;18.40;99.90
14735;DHT22;7458;49.002;8.472;2022-09-14T04:17:03;18.30;99.90
14735;DHT22;7458;49.002;8.472;2022-09-14T04:19:29;18.40;99.90
14735;DHT22;7458;49.002;8.472;2022-09-14T04:21:55;18.50;99.90
14735;DHT22;7458;49.002;8.472;2022-09-14T04:24:21;18.50;99.90
14735;DHT22;7458;49.002;8.472;2022-09-14T04:26:46;18.50;99.90
14735;DHT22;7458;49.002;8.472;2022-09-14T04:29:13;18.60;99.90
14735;DHT22;7458;49.002;8.472;2022-09-14T04:31:39;18.60;99.90
14735;DHT22;7458;49.002;8.472;2022-09-14T04:34:05;18.50;99.90
14735;DHT22;7458;49.002;8.472;2022-09-14T04:36:31;18.60;99.90
14735;DHT22;7458;49.002;8.472;2022-09-14T04:38:59;18.60;99.90
14735;DHT22;7458;49.002;8.472;2022-09-14T04:41:27;18.60;99.90
14735;DHT22;7458;49.002;8.472;2022-09-14T04:43:55;18.60;99.90
14735;DHT22;7458;49.002;8.472;2022-09-14T04:46:24;18.70;99.90
14735;DHT22;7458;49.002;8.472;2022-09-14T04:48:57;18.70;99.90
14735;DHT22;7458;49.002;8.472;2022-09-14T04:51:27;18.70;99.90
14735;DHT22;7458;49.002;8.472;2022-09-14T04:53:56;18.70;99.90
14735;DHT22;7458;49.002;8.472;2022-09-14T04:56:24;18.70;99.90
14735;DHT22;7458;49.002;8.472;2022-09-14T04:58:52;18.80;99.90
14735;DHT22;7458;49.002;8.472;2022-09-14T05:01:22;18.80;99.90
14735;DHT22;7458;49.002;8.472;2022-09-14T05:03:49;18.70;99.90
14735;DHT22;7458;49.002;8.472;2022-09-14T05:06:18;18.70;99.90
14735;DHT22;7458;49.002;8.472;2022-09-14T05:08:46;18.70;99.90
14735;DHT22;7458;49.002;8.472;2022-09-14T05:11:15;18.70;99.90
14735;DHT22;7458;49.002;8.472;2022-09-14T05:13:42;18.70;99.90
14735;DHT22;7458;49.002;8.472;2022-09-14T05:16:20;18.80;99.90
14735;DHT22;7458;49.002;8.472;2022-09-14T05:18:56;18.80;99.90
14735;DHT22;7458;49.002;8.472;2022-09-14T05:21:25;18.80;99.90
14735;DHT22;7458;49.002;8.472;2022-09-14T05:23:59;18.80;99.90
14735;DHT22;7458;49.002;8.472;2022-09-14T05:26:28;18.80;99.90
14735;DHT22;7458;49.002;8.472;2022-09-14T05:28:57;18.70;99.90
14735;DHT22;7458;49.002;8.472;2022-09-14T05:31:25;18.70;99.90
14735;DHT22;7458;49.002;8.472;2022-09-14T05:33:53;18.70;99.90
14735;DHT22;7458;49.002;8.472;2022-09-14T05:36:19;18.70;99.90
14735;DHT22;7458;49.002;8.472;2022-09-14T05:38:46;18.70;99.90
14735;DHT22;7458;49.002;8.472;2022-09-14T05:41:13;18.70;99.90
14735;DHT22;7458;49.002;8.472;2022-09-14T05:43:40;18.80;99.90
14735;DHT22;7458;49.002;8.472;2022-09-14T05:46:10;18.80;99.90
14735;DHT22;7458;49.002;8.472;2022-09-14T05:48:38;18.80;99.90
14735;DHT22;7458;49.002;8.472;2022-09-14T05:51:07;18.80;99.90
14735;DHT22;7458;49.002;8.472;2022-09-14T05:53:35;18.80;99.90
14735;DHT22;7458;49.002;8.472;2022-09-14T05:56:06;18.80;99.90
14735;DHT22;7458;49.002;8.472;2022-09-14T05:58:34;18.70;99.90
14735;DHT22;7458;49.002;8.472;2022-09-14T06:01:18;18.80;99.90
14735;DHT22;7458;49.002;8.472;2022-09-14T06:03:49;18.80;99.90
14735;DHT22;7458;49.002;8.472;2022-09-14T06:06:18;18.80;99.90
14735;DHT22;7458;49.002;8.472;2022-09-14T06:08:45;18.80;99.90
14735;DHT22;7458;49.002;8.472;2022-09-14T06:11:14;18.80;99.90
14735;DHT22;7458;49.002;8.472;2022-09-14T06:13:42;18.90;99.90
14735;DHT22;7458;49.002;8.472;2022-09-14T06:16:13;18.90;99.90
14735;DHT22;7458;49.002;8.472;2022-09-14T06:18:41;18.90;99.90
14735;DHT22;7458;49.002;8.472;2022-09-14T06:21:10;18.90;99.90
14735;DHT22;7458;49.002;8.472;2022-09-14T06:23:39;18.90;99.90
14735;DHT22;7458;49.002;8.472;2022-09-14T06:26:06;18.80;99.90
14735;DHT22;7458;49.002;8.472;2022-09-14T06:28:33;18.80;99.90
14735;DHT22;7458;49.002;8.472;2022-09-14T06:30:59;18.80;99.90
14735;DHT22;7458;49.002;8.472;2022-09-14T06:33:27;18.80;99.90
14735;DHT22;7458;49.002;8.472;2022-09-14T06:36:04;18.80;99.90
14735;DHT22;7458;49.002;8.472;2022-09-14T06:38:36;18.80;99.90
14735;DHT22;7458;49.002;8.472;2022-09-14T06:41:05;18.80;99.90
14735;DHT22;7458;49.002;8.472;2022-09-14T06:43:35;18.90;99.90
14735;DHT22;7458;49.002;8.472;2022-09-14T06:46:23;18.90;99.90
14735;DHT22;7458;49.002;8.472;2022-09-14T06:48:57;19.00;99.90
14735;DHT22;7458;49.002;8.472;2022-09-14T06:51:30;19.00;99.90
14735;DHT22;7458;49.002;8.472;2022-09-14T06:53:58;19.00;99.90
14735;DHT22;7458;49.002;8.472;2022-09-14T06:56:26;19.10;99.90
14735;DHT22;7458;49.002;8.472;2022-09-14T06:58:53;19.00;99.90
14735;DHT22;7458;49.002;8.472;2022-09-14T07:01:20;19.10;99.90
14735;DHT22;7458;49.002;8.472;2022-09-14T07:03:46;19.20;99.90
14735;DHT22;7458;49.002;8.472;2022-09-14T07:06:20;19.10;99.90
14735;DHT22;7458;49.002;8.472;2022-09-14T07:08:48;19.20;99.90
14735;DHT22;7458;49.002;8.472;2022-09-14T07:11:20;19.20;99.90
14735;DHT22;7458;49.002;8.472;2022-09-14T07:13:47;19.20;99.90
14735;DHT22;7458;49.002;8.472;2022-09-14T07:16:14;19.20;99.90
14735;DHT22;7458;49.002;8.472;2022-09-14T07:18:40;19.30;99.90
14735;DHT22;7458;49.002;8.472;2022-09-14T07:21:14;19.30;99.90
14735;DHT22;7458;49.002;8.472;2022-09-14T07:23:42;19.50;99.90
14735;DHT22;7458;49.002;8.472;2022-09-14T07:26:15;19.60;99.90
14735;DHT22;7458;49.002;8.472;2022-09-14T07:28:48;19.80;99.90
14735;DHT22;7458;49.002;8.472;2022-09-14T07:31:18;19.90;99.90
14735;DHT22;7458;49.002;8.472;2022-09-14T07:33:54;20.00;99.90
14735;DHT22;7458;49.002;8.472;2022-09-14T07:36:22;19.90;99.90
14735;DHT22;7458;49.002;8.472;2022-09-14T07:38:49;20.00;99.90
14735;DHT22;7458;49.002;8.472;2022-09-14T07:41:16;20.20;99.90
14735;DHT22;7458;49.002;8.472;2022-09-14T07:43:42;20.50;99.90
14735;DHT22;7458;49.002;8.472;2022-09-14T07:46:08;20.30;99.90
14735;DHT22;7458;49.002;8.472;2022-09-14T07:48:35;20.30;99.90
14735;DHT22;7458;49.002;8.472;2022-09-14T07:51:03;20.40;99.90
14735;DHT22;7458;49.002;8.472;2022-09-14T07:53:31;20.50;99.90
14735;DHT22;7458;49.002;8.472;2022-09-14T07:56:00;20.50;99.90
14735;DHT22;7458;49.002;8.472;2022-09-14T07:58:27;20.60;99.90
14735;DHT22;7458;49.002;8.472;2022-09-14T08:01:01;20.60;99.90
14735;DHT22;7458;49.002;8.472;2022-09-14T08:03:29;20.60;99.90
14735;DHT22;7458;49.002;8.472;2022-09-14T08:06:00;20.70;99.90
14735;DHT22;7458;49.002;8.472;2022-09-14T08:08:29;20.80;99.90
14735;DHT22;7458;49.002;8.472;2022-09-14T08:11:03;21.10;99.90
14735;DHT22;7458;49.002;8.472;2022-09-14T08:13:32;21.40;99.90
14735;DHT22;7458;49.002;8.472;2022-09-14T08:15:59;21.70;99.90
14735;DHT22;7458;49.002;8.472;2022-09-14T08:18:27;22.00;99.90
14735;DHT22;7458;49.002;8.472;2022-09-14T08:20:54;22.40;99.90
14735;DHT22;7458;49.002;8.472;2022-09-14T08:23:21;22.50;99.90
14735;DHT22;7458;49.002;8.472;2022-09-14T08:25:48;22.70;99.90
14735;DHT22;7458;49.002;8.472;2022-09-14T08:28:14;22.90;99.90
14735;DHT22;7458;49.002;8.472;2022-09-14T08:30:40;23.40;99.90
14735;DHT22;7458;49.002;8.472;2022-09-14T08:33:05;23.60;99.90
14735;DHT22;7458;49.002;8.472;2022-09-14T08:35:31;23.70;99.90
14735;DHT22;7458;49.002;8.472;2022-09-14T08:37:57;23.80;99.90
14735;DHT22;7458;49.002;8.472;2022-09-14T08:40:23;24.00;99.90
14735;DHT22;7458;49.002;8.472;2022-09-14T08:42:50;24.10;99.90
14735;DHT22;7458;49.002;8.472;2022-09-14T08:45:18;24.40;99.90
14735;DHT22;7458;49.002;8.472;2022-09-14T08:47:44;24.40;99.90
14735;DHT22;7458;49.002;8.472;2022-09-14T08:52:44;24.30;99.90
14735;DHT22;7458;49.002;8.472;2022-09-14T08:55:32;24.60;99.90
14735;DHT22;7458;49.002;8.472;2022-09-14T09:01:15;25.00;99.90
14735;DHT22;7458;49.002;8.472;2022-09-14T09:04:12;25.30;99.90
14735;DHT22;7458;49.002;8.472;2022-09-14T09:09:43;24.60;99.90
14735;DHT22;7458;49.002;8.472;2022-09-14T09:12:17;24.40;99.90
14735;DHT22;7458;49.002;8.472;2022-09-14T09:14:56;24.00;99.90
14735;DHT22;7458;49.002;8.472;2022-09-14T09:17:35;23.90;99.90
14735;DHT22;7458;49.002;8.472;2022-09-14T09:23:16;23.60;99.90
14735;DHT22;7458;49.002;8.472;2022-09-14T09:25:58;23.50;99.90
14735;DHT22;7458;49.002;8.472;2022-09-14T09:28:28;23.70;99.90
14735;DHT22;7458;49.002;8.472;2022-09-14T09:31:06;24.20;99.90
14735;DHT22;7458;49.002;8.472;2022-09-14T09:33:34;24.80;99.90
14735;DHT22;7458;49.002;8.472;2022-09-14T09:36:00;25.30;99.90
14735;DHT22;7458;49.002;8.472;2022-09-14T09:38:27;25.80;99.90
14735;DHT22;7458;49.002;8.472;2022-09-14T09:41:07;26.10;99.90
14735;DHT22;7458;49.002;8.472;2022-09-14T09:44:00;26.30;99.90
14735;DHT22;7458;49.002;8.472;2022-09-14T09:46:57;26.60;99.90
14735;DHT22;7458;49.002;8.472;2022-09-14T09:49:35;26.90;99.90
14735;DHT22;7458;49.002;8.472;2022-09-14T09:52:16;27.10;99.90
14735;DHT22;7458;49.002;8.472;2022-09-14T09:54:49;27.20;99.90
14735;DHT22;7458;49.002;8.472;2022-09-14T10:00:28;27.50;99.90
14735;DHT22;7458;49.002;8.472;2022-09-14T10:02:56;27.40;99.90
14735;DHT22;7458;49.002;8.472;2022-09-14T10:05:25;27.60;99.90
14735;DHT22;7458;49.002;8.472;2022-09-14T10:08:01;27.70;99.90
14735;DHT22;7458;49.002;8.472;2022-09-14T10:13:03;27.80;99.90
14735;DHT22;7458;49.002;8.472;2022-09-14T10:15:35;27.70;99.90
14735;DHT22;7458;49.002;8.472;2022-09-14T10:21:03;27.20;99.90
14735;DHT22;7458;49.002;8.472;2022-09-14T10:23:33;27.10;99.90
14735;DHT22;7458;49.002;8.472;2022-09-14T10:28:48;27.70;99.90
14735;DHT22;7458;49.002;8.472;2022-09-14T10:33:43;27.70;99.90
14735;DHT22;7458;49.002;8.472;2022-09-14T10:39:07;28.10;99.90
14735;DHT22;7458;49.002;8.472;2022-09-14T10:42:05;28.30;99.90
14735;DHT22;7458;49.002;8.472;2022-09-14T10:47:56;28.10;99.90
14735;DHT22;7458;49.002;8.472;2022-09-14T10:50:50;28.10;99.90
14735;DHT22;7458;49.002;8.472;2022-09-14T10:56:28;28.50;99.90
14735;DHT22;7458;49.002;8.472;2022-09-14T11:05:14;29.60;99.90
14735;DHT22;7458;49.002;8.472;2022-09-14T11:07:54;30.00;99.90
14735;DHT22;7458;49.002;8.472;2022-09-14T11:11:15;29.90;99.90
14735;DHT22;7458;49.002;8.472;2022-09-14T11:19:19;28.70;99.90
14735;DHT22;7458;49.002;8.472;2022-09-14T11:22:13;28.50;99.90
14735;DHT22;7458;49.002;8.472;2022-09-14T11:30:55;28.70;99.90
14735;DHT22;7458;49.002;8.472;2022-09-14T11:33:35;28.70;99.90
14735;DHT22;7458;49.002;8.472;2022-09-14T11:39:04;28.70;99.90
14735;DHT22;7458;49.002;8.472;2022-09-14T11:41:51;28.40;99.50
14735;DHT22;7458;49.002;8.472;2022-09-14T11:44:36;28.10;98.80
14735;DHT22;7458;49.002;8.472;2022-09-14T11:47:15;28.10;99.90
14735;DHT22;7458;49.002;8.472;2022-09-14T11:50:05;27.90;99.90
14735;DHT22;7458;49.002;8.472;2022-09-14T11:52:49;28.00;99.50
14735;DHT22;7458;49.002;8.472;2022-09-14T11:55:26;27.80;99.90
14735;DHT22;7458;49.002;8.472;2022-09-14T11:57:52;27.70;99.90
14735;DHT22;7458;49.002;8.472;2022-09-14T12:05:37;27.60;99.90
14735;DHT22;7458;49.002;8.472;2022-09-14T12:13:33;27.00;99.90
14735;DHT22;7458;49.002;8.472;2022-09-14T12:16:06;26.90;99.90
14735;DHT22;7458;49.002;8.472;2022-09-14T12:18:37;26.80;99.90
14735;DHT22;7458;49.002;8.472;2022-09-14T12:21:16;26.70;99.90
14735;DHT22;7458;49.002;8.472;2022-09-14T12:23:49;26.60;99.90
14735;DHT22;7458;49.002;8.472;2022-09-14T12:26:32;26.70;99.90
14735;DHT22;7458;49.002;8.472;2022-09-14T12:32:02;26.40;99.90
14735;DHT22;7458;49.002;8.472;2022-09-14T12:34:31;26.20;99.90
14735;DHT22;7458;49.002;8.472;2022-09-14T12:37:04;25.80;99.90
14735;DHT22;7458;49.002;8.472;2022-09-14T12:42:55;24.70;99.90
14735;DHT22;7458;49.002;8.472;2022-09-14T12:45:47;24.00;99.90
14735;DHT22;7458;49.002;8.472;2022-09-14T12:56:40;21.60;99.90
14735;DHT22;7458;49.002;8.472;2022-09-14T13:02:16;21.00;99.90
14735;DHT22;7458;49.002;8.472;2022-09-14T13:04:58;20.90;99.90
14735;DHT22;7458;49.002;8.472;2022-09-14T13:07:29;20.70;99.90
14735;DHT22;7458;49.002;8.472;2022-09-14T13:09:58;20.70;99.90
14735;DHT22;7458;49.002;8.472;2022-09-14T13:12:39;20.50;99.90
14735;DHT22;7458;49.002;8.472;2022-09-14T13:15:22;20.40;99.90
14735;DHT22;7458;49.002;8.472;2022-09-14T13:18:04;20.40;99.90
14735;DHT22;7458;49.002;8.472;2022-09-14T13:20:50;20.40;99.90
14735;DHT22;7458;49.002;8.472;2022-09-14T13:23:30;20.40;99.90
14735;DHT22;7458;49.002;8.472;2022-09-14T13:26:11;20.50;99.90
14735;DHT22;7458;49.002;8.472;2022-09-14T13:28:44;20.50;99.90
14735;DHT22;7458;49.002;8.472;2022-09-14T13:31:15;20.50;99.90
14735;DHT22;7458;49.002;8.472;2022-09-14T13:33:48;20.50;99.90
14735;DHT22;7458;49.002;8.472;2022-09-14T13:36:19;20.60;99.90
14735;DHT22;7458;49.002;8.472;2022-09-14T13:38:49;20.70;99.90
14735;DHT22;7458;49.002;8.472;2022-09-14T13:41:17;20.80;99.90
14735;DHT22;7458;49.002;8.472;2022-09-14T13:43:47;20.70;99.90
14735;DHT22;7458;49.002;8.472;2022-09-14T13:46:17;20.70;99.90
14735;DHT22;7458;49.002;8.472;2022-09-14T13:48:43;20.70;99.90
14735;DHT22;7458;49.002;8.472;2022-09-14T13:51:11;20.70;99.90
14735;DHT22;7458;49.002;8.472;2022-09-14T13:53:40;20.60;99.90
14735;DHT22;7458;49.002;8.472;2022-09-14T13:56:34;20.60;99.90
14735;DHT22;7458;49.002;8.472;2022-09-14T13:59:13;20.60;99.90
14735;DHT22;7458;49.002;8.472;2022-09-14T14:01:59;20.60;99.90
14735;DHT22;7458;49.002;8.472;2022-09-14T14:04:34;20.60;99.90
14735;DHT22;7458;49.002;8.472;2022-09-14T14:07:17;20.60;99.90
14735;DHT22;7458;49.002;8.472;2022-09-14T14:12:32;20.70;99.90
14735;DHT22;7458;49.002;8.472;2022-09-14T14:17:50;20.60;99.90
14735;DHT22;7458;49.002;8.472;2022-09-14T14:22:58;20.50;99.90
14735;DHT22;7458;49.002;8.472;2022-09-14T14:25:33;20.50;99.90
14735;DHT22;7458;49.002;8.472;2022-09-14T14:28:37;20.50;99.90
14735;DHT22;7458;49.002;8.472;2022-09-14T14:31:04;20.50;99.90
14735;DHT22;7458;49.002;8.472;2022-09-14T14:33:33;20.40;99.90
14735;DHT22;7458;49.002;8.472;2022-09-14T14:36:01;20.40;99.90
14735;DHT22;7458;49.002;8.472;2022-09-14T14:38:34;20.40;99.90
14735;DHT22;7458;49.002;8.472;2022-09-14T14:40:59;20.50;99.90
14735;DHT22;7458;49.002;8.472;2022-09-14T14:43:26;20.50;99.90
14735;DHT22;7458;49.002;8.472;2022-09-14T14:45:58;20.50;99.90
14735;DHT22;7458;49.002;8.472;2022-09-14T14:48:26;20.50;99.90
14735;DHT22;7458;49.002;8.472;2022-09-14T14:50:53;20.40;99.90
14735;DHT22;7458;49.002;8.472;2022-09-14T14:53:21;20.50;99.90
14735;DHT22;7458;49.002;8.472;2022-09-14T14:55:47;20.50;99.90
14735;DHT22;7458;49.002;8.472;2022-09-14T14:58:18;20.50;99.90
14735;DHT22;7458;49.002;8.472;2022-09-14T15:00:45;20.50;99.90
14735;DHT22;7458;49.002;8.472;2022-09-14T15:03:12;20.40;99.90
14735;DHT22;7458;49.002;8.472;2022-09-14T15:05:44;20.30;99.90
14735;DHT22;7458;49.002;8.472;2022-09-14T15:08:12;20.40;99.90
14735;DHT22;7458;49.002;8.472;2022-09-14T15:10:40;20.30;99.90
14735;DHT22;7458;49.002;8.472;2022-09-14T15:13:08;20.30;99.90
14735;DHT22;7458;49.002;8.472;2022-09-14T15:15:35;20.20;99.90
14735;DHT22;7458;49.002;8.472;2022-09-14T15:18:01;20.20;99.90
14735;DHT22;7458;49.002;8.472;2022-09-14T15:20:27;20.20;99.90
14735;DHT22;7458;49.002;8.472;2022-09-14T15:22:53;20.20;99.90
14735;DHT22;7458;49.002;8.472;2022-09-14T15:25:19;20.30;99.90
14735;DHT22;7458;49.002;8.472;2022-09-14T15:27:46;20.40;99.90
14735;DHT22;7458;49.002;8.472;2022-09-14T15:30:12;20.40;99.90
14735;DHT22;7458;49.002;8.472;2022-09-14T15:32:39;20.50;99.90
14735;DHT22;7458;49.002;8.472;2022-09-14T15:35:06;20.50;99.90
14735;DHT22;7458;49.002;8.472;2022-09-14T15:37:34;20.60;99.90
14735;DHT22;7458;49.002;8.472;2022-09-14T15:40:01;20.70;99.90
14735;DHT22;7458;49.002;8.472;2022-09-14T15:42:27;20.80;99.90
14735;DHT22;7458;49.002;8.472;2022-09-14T15:44:53;21.00;99.90
14735;DHT22;7458;49.002;8.472;2022-09-14T15:47:19;21.10;99.90
14735;DHT22;7458;49.002;8.472;2022-09-14T15:49:44;21.10;99.90
14735;DHT22;7458;49.002;8.472;2022-09-14T15:52:11;21.10;99.90
14735;DHT22;7458;49.002;8.472;2022-09-14T15:54:37;21.20;99.90
14735;DHT22;7458;49.002;8.472;2022-09-14T15:57:06;21.20;99.90
14735;DHT22;7458;49.002;8.472;2022-09-14T15:59:34;21.10;99.90
14735;DHT22;7458;49.002;8.472;2022-09-14T16:02:00;21.10;99.90
14735;DHT22;7458;49.002;8.472;2022-09-14T16:04:26;21.10;99.90
14735;DHT22;7458;49.002;8.472;2022-09-14T16:06:52;21.10;99.90
14735;DHT22;7458;49.002;8.472;2022-09-14T16:09:18;21.10;99.90
14735;DHT22;7458;49.002;8.472;2022-09-14T16:11:47;21.00;99.90
14735;DHT22;7458;49.002;8.472;2022-09-14T16:14:13;21.00;99.90
14735;DHT22;7458;49.002;8.472;2022-09-14T16:16:39;21.10;99.90
14735;DHT22;7458;49.002;8.472;2022-09-14T16:19:09;21.00;99.90
14735;DHT22;7458;49.002;8.472;2022-09-14T16:21:37;21.00;99.90
14735;DHT22;7458;49.002;8.472;2022-09-14T16:24:06;21.00;99.90
14735;DHT22;7458;49.002;8.472;2022-09-14T16:26:36;21.00;99.90
14735;DHT22;7458;49.002;8.472;2022-09-14T16:29:04;20.90;99.90
14735;DHT22;7458;49.002;8.472;2022-09-14T16:31:34;20.90;99.90
14735;DHT22;7458;49.002;8.472;2022-09-14T16:34:05;20.90;99.90
14735;DHT22;7458;49.002;8.472;2022-09-14T16:36:41;20.90;99.90
14735;DHT22;7458;49.002;8.472;2022-09-14T16:39:14;20.90;99.90
14735;DHT22;7458;49.002;8.472;2022-09-14T16:41:42;20.80;99.90
14735;DHT22;7458;49.002;8.472;2022-09-14T16:44:12;20.80;99.90
14735;DHT22;7458;49.002;8.472;2022-09-14T16:46:41;20.70;99.90
14735;DHT22;7458;49.002;8.472;2022-09-14T16:49:07;20.60;99.90
14735;DHT22;7458;49.002;8.472;2022-09-14T16:51:34;20.60;99.90
14735;DHT22;7458;49.002;8.472;2022-09-14T16:54:00;20.60;99.90
14735;DHT22;7458;49.002;8.472;2022-09-14T16:56:31;20.60;99.90
14735;DHT22;7458;49.002;8.472;2022-09-14T16:59:02;20.60;99.90
14735;DHT22;7458;49.002;8.472;2022-09-14T17:01:34;20.60;99.90
14735;DHT22;7458;49.002;8.472;2022-09-14T17:04:04;20.70;99.90
14735;DHT22;7458;49.002;8.472;2022-09-14T17:06:34;20.70;99.90
14735;DHT22;7458;49.002;8.472;2022-09-14T17:09:08;20.70;99.90
14735;DHT22;7458;49.002;8.472;2022-09-14T17:11:38;20.70;99.90
14735;DHT22;7458;49.002;8.472;2022-09-14T17:14:05;20.70;99.90
14735;DHT22;7458;49.002;8.472;2022-09-14T17:16:32;20.70;99.90
14735;DHT22;7458;49.002;8.472;2022-09-14T17:19:00;20.70;99.90
14735;DHT22;7458;49.002;8.472;2022-09-14T17:21:30;20.60;99.90
14735;DHT22;7458;49.002;8.472;2022-09-14T17:24:01;20.60;99.90
14735;DHT22;7458;49.002;8.472;2022-09-14T17:26:29;20.60;99.90
14735;DHT22;7458;49.002;8.472;2022-09-14T17:28:56;20.50;99.90
14735;DHT22;7458;49.002;8.472;2022-09-14T17:31:26;20.50;99.90
14735;DHT22;7458;49.002;8.472;2022-09-14T17:33:55;20.50;99.90
14735;DHT22;7458;49.002;8.472;2022-09-14T17:36:23;20.50;99.90
14735;DHT22;7458;49.002;8.472;2022-09-14T17:38:49;20.50;99.90
14735;DHT22;7458;49.002;8.472;2022-09-14T17:41:18;20.60;99.90
14735;DHT22;7458;49.002;8.472;2022-09-14T17:43:59;20.70;99.90
14735;DHT22;7458;49.002;8.472;2022-09-14T17:46:27;20.90;99.90
14735;DHT22;7458;49.002;8.472;2022-09-14T17:48:56;21.10;99.90
14735;DHT22;7458;49.002;8.472;2022-09-14T17:51:25;21.20;99.90
14735;DHT22;7458;49.002;8.472;2022-09-14T17:53:53;21.40;99.90
14735;DHT22;7458;49.002;8.472;2022-09-14T17:56:22;21.40;99.90
14735;DHT22;7458;49.002;8.472;2022-09-14T17:58:57;21.40;99.90
14735;DHT22;7458;49.002;8.472;2022-09-14T18:01:29;21.40;99.90
14735;DHT22;7458;49.002;8.472;2022-09-14T18:03:58;21.40;99.90
14735;DHT22;7458;49.002;8.472;2022-09-14T18:06:28;21.30;99.90
14735;DHT22;7458;49.002;8.472;2022-09-14T18:08:57;21.30;99.90
14735;DHT22;7458;49.002;8.472;2022-09-14T18:11:25;20.70;99.90
14735;DHT22;7458;49.002;8.472;2022-09-14T18:13:52;21.30;99.90
14735;DHT22;7458;49.002;8.472;2022-09-14T18:16:20;21.30;99.90
14735;DHT22;7458;49.002;8.472;2022-09-14T18:18:47;21.20;99.90